Time;durP1;ratioP1;P1;durP2;ratioP2;P2;SDS_P1;SDS_P2;PMS_P1;PMS_P2;Temp;Humidity;BMP_temperature;BMP_pressure;BME280_temperature;BME280_humidity;BME280_pressure;Samples;Min_cycle;Max_cycle;Signal;HPM_P1;HPM_P2
2023/04/26 00:00:28;;;;;;;7.90;5.72;;;;;;;-144.57;100.00;62443.72;5056029;28;20040;-63
2023/04/26 00:02:54;;;;;;;8.85;5.93;;;;;;;-144.57;100.00;62443.72;5055716;28;20041;-64
2023/04/26 00:05:20;;;;;;;11.45;6.78;;;;;;;-144.57;100.00;62443.72;5056903;28;20048;-63
2023/04/26 00:07:49;;;;;;;11.40;6.88;;;;;;;-144.57;100.00;62443.72;5054393;28;20124;-63
2023/04/26 00:10:15;;;;;;;6.93;5.97;;;;;;;-144.57;100.00;62443.72;5039461;28;20037;-63
2023/04/26 00:12:41;;;;;;;11.40;6.38;;;;;;;-144.57;100.00;62443.72;5055440;28;20043;-65
2023/04/26 00:15:08;;;;;;;8.27;5.78;;;;;;;-144.57;100.00;62443.72;5056447;28;20115;-63
2023/04/26 00:17:34;;;;;;;8.98;6.32;;;;;;;-144.57;100.00;62443.72;5053992;28;20095;-63
2023/04/26 00:20:00;;;;;;;9.38;6.32;;;;;;;-144.57;100.00;62443.72;5054368;28;20032;-63
2023/04/26 00:22:26;;;;;;;10.13;6.22;;;;;;;-144.57;100.00;62443.72;5056389;28;20046;-63
2023/04/26 00:24:52;;;;;;;11.10;6.88;;;;;;;-144.57;100.00;62443.72;5054224;28;20037;-65
2023/04/26 00:27:18;;;;;;;8.57;6.45;;;;;;;-144.57;100.00;62443.72;5056655;28;20094;-62
2023/04/26 00:29:43;;;;;;;12.13;7.40;;;;;;;-144.57;100.00;62443.72;5053547;28;20044;-64
2023/04/26 00:32:09;;;;;;;9.15;6.90;;;;;;;-144.57;100.00;62443.72;5056186;28;20076;-62
2023/04/26 00:34:36;;;;;;;9.68;6.35;;;;;;;-144.57;100.00;62443.72;5042703;28;20044;-64
2023/04/26 00:37:03;;;;;;;7.57;5.63;;;;;;;-144.57;100.00;62443.72;5064295;28;21180;-64
2023/04/26 00:39:29;;;;;;;11.40;7.00;;;;;;;-144.57;100.00;62443.72;5051156;28;20068;-64
2023/04/26 00:41:55;;;;;;;9.60;6.78;;;;;;;-144.57;100.00;62443.72;5069067;28;20037;-62
2023/04/26 00:44:21;;;;;;;9.80;6.30;;;;;;;-144.57;100.00;62443.72;5066997;28;20036;-64
2023/04/26 00:46:48;;;;;;;9.35;6.10;;;;;;;-144.57;100.00;62443.72;5069302;28;20033;-64
2023/04/26 00:49:18;;;;;;;11.05;6.95;;;;;;;-144.57;100.00;62443.72;5035716;28;20051;-63
2023/04/26 00:51:44;;;;;;;;;;;;;;;-144.57;100.00;62443.72;5054375;28;20029;-63
2023/04/26 00:54:10;;;;;;;9.73;6.15;;;;;;;-144.57;100.00;62443.72;5054351;28;19925;-66
2023/04/26 00:56:37;;;;;;;10.60;5.75;;;;;;;-144.57;100.00;62443.72;5031585;28;20056;-66
2023/04/26 00:59:03;;;;;;;9.90;6.53;;;;;;;-144.57;100.00;62443.72;5049899;28;20572;-63
2023/04/26 01:01:29;;;;;;;9.90;6.65;;;;;;;-144.57;100.00;62443.72;5068750;28;20174;-64
2023/04/26 01:03:55;;;;;;;7.85;5.75;;;;;;;-144.57;100.00;62443.72;5068347;28;20394;-64
2023/04/26 01:06:21;;;;;;;9.70;7.00;;;;;;;-144.57;100.00;62443.72;5066488;28;20041;-64
2023/04/26 01:08:50;;;;;;;10.75;7.65;;;;;;;-144.57;100.00;62443.72;5069366;28;20153;-64
2023/04/26 01:11:16;;;;;;;11.23;6.75;;;;;;;-144.57;100.00;62443.72;5051944;28;20043;-62
2023/04/26 01:13:42;;;;;;;11.20;7.55;;;;;;;-144.57;100.00;62443.72;5053492;28;20036;-64
2023/04/26 01:16:08;;;;;;;11.02;7.68;;;;;;;-144.57;100.00;62443.72;5054589;28;20063;-63
2023/04/26 01:18:34;;;;;;;11.75;7.93;;;;;;;-144.57;100.00;62443.72;5034647;28;20502;-64
2023/04/26 01:21:03;;;;;;;12.13;8.02;;;;;;;-144.57;100.00;62443.72;5059036;28;20036;-64
2023/04/26 01:23:29;;;;;;;11.15;7.75;;;;;;;-144.57;100.00;62443.72;5068667;28;20048;-63
2023/04/26 01:25:55;;;;;;;13.52;8.02;;;;;;;-144.57;100.00;62443.72;5067459;28;20041;-63
2023/04/26 01:28:21;;;;;;;11.70;8.40;;;;;;;-144.57;100.00;62443.72;5067178;28;20057;-63
2023/04/26 01:30:47;;;;;;;10.27;8.02;;;;;;;-144.57;100.00;62443.72;5051898;28;20037;-64
2023/04/26 01:33:14;;;;;;;10.35;7.82;;;;;;;-144.57;100.00;62443.72;5058476;28;20148;-63
2023/04/26 01:35:41;;;;;;;13.02;8.88;;;;;;;-144.57;100.00;62443.72;5067122;28;20437;-63
2023/04/26 01:38:07;;;;;;;11.38;8.02;;;;;;;-144.57;100.00;62443.72;5067250;28;20046;-63
2023/04/26 01:40:33;;;;;;;18.05;9.82;;;;;;;-144.57;100.00;62443.72;5066417;28;20048;-63
2023/04/26 01:42:59;;;;;;;11.85;7.82;;;;;;;-144.57;100.00;62443.72;5049941;28;20041;-64
2023/04/26 01:45:29;;;;;;;12.68;7.93;;;;;;;-144.57;100.00;62443.72;5065129;28;20056;-64
2023/04/26 01:48:14;;;;;;;10.50;7.82;;;;;;;-144.57;100.00;62443.72;5068650;28;20094;-63
2023/04/26 01:50:39;;;;;;;9.82;7.53;;;;;;;-144.57;100.00;62443.72;5043103;28;20437;-62
2023/04/26 01:53:05;;;;;;;11.18;7.40;;;;;;;-144.57;100.00;62443.72;5057066;28;20052;-63
2023/04/26 01:55:32;;;;;;;11.93;6.57;;;;;;;-144.57;100.00;62443.72;5054528;28;20103;-63
2023/04/26 01:57:58;;;;;;;10.85;6.75;;;;;;;-144.57;100.00;62443.72;5052497;28;20068;-63
2023/04/26 02:00:23;;;;;;;8.32;6.32;;;;;;;-144.57;100.00;62443.72;5036460;28;20506;-64
2023/04/26 02:02:49;;;;;;;10.93;6.40;;;;;;;-144.57;100.00;62443.72;5053861;28;20075;-64
2023/04/26 02:05:15;;;;;;;10.38;6.47;;;;;;;-144.57;100.00;62443.72;5035646;28;20053;-63
2023/04/26 02:07:41;;;;;;;10.70;6.68;;;;;;;-144.57;100.00;62443.72;5053535;28;20038;-63
2023/04/26 02:10:07;;;;;;;9.18;6.30;;;;;;;-144.57;100.00;62443.72;5052166;28;20028;-64
2023/04/26 02:12:33;;;;;;;7.82;6.20;;;;;;;-144.57;100.00;62443.72;5045794;28;20101;-64
2023/04/26 02:14:59;;;;;;;9.15;6.07;;;;;;;-144.57;100.00;62443.72;5052913;28;20405;-64
2023/04/26 02:17:36;;;;;;;10.35;7.05;;;;;;;-144.57;100.00;62443.72;5053327;28;20053;-64
2023/04/26 02:20:02;;;;;;;9.27;6.30;;;;;;;-144.57;100.00;62443.72;5051961;28;20044;-64
2023/04/26 02:22:30;;;;;;;8.65;5.88;;;;;;;-144.57;100.00;62443.72;5054482;28;20045;-63
2023/04/26 02:24:57;;;;;;;9.07;6.28;;;;;;;-144.57;100.00;62443.72;5052094;28;20040;-64
2023/04/26 02:27:31;;;;;;;10.02;5.93;;;;;;;-144.57;100.00;62443.72;5053242;28;20514;-63
2023/04/26 02:29:58;;;;;;;7.05;5.32;;;;;;;-144.57;100.00;62443.72;5052082;28;20084;-63
2023/04/26 02:32:25;;;;;;;10.63;6.25;;;;;;;-144.57;100.00;62443.72;5032256;28;20072;-64
2023/04/26 02:34:51;;;;;;;6.97;5.70;;;;;;;-144.57;100.00;62443.72;5049076;28;20447;-63
2023/04/26 02:37:16;;;;;;;6.10;5.05;;;;;;;-144.57;100.00;62443.72;5037039;28;20102;-64
2023/04/26 02:39:43;;;;;;;6.82;5.13;;;;;;;-144.57;100.00;62443.72;5049704;28;20542;-64
2023/04/26 02:42:10;;;;;;;8.32;5.93;;;;;;;-144.57;100.00;62443.72;5050107;28;20064;-62
2023/04/26 02:44:36;;;;;;;6.90;5.10;;;;;;;-144.57;100.00;62443.72;5054090;28;20131;-64
2023/04/26 02:47:02;;;;;;;7.00;5.07;;;;;;;-144.57;100.00;62443.72;5066511;28;20036;-63
2023/04/26 02:49:29;;;;;;;7.05;4.82;;;;;;;-144.57;100.00;62443.72;5064583;28;20039;-65
2023/04/26 02:51:55;;;;;;;6.75;5.22;;;;;;;-144.57;100.00;62443.72;5067262;28;20497;-63
2023/04/26 02:54:22;;;;;;;6.72;4.50;;;;;;;-144.57;100.00;62443.72;5064717;28;20459;-64
2023/04/26 02:56:47;;;;;;;9.10;5.90;;;;;;;-144.57;100.00;62443.72;5065821;28;20064;-64
2023/04/26 02:59:13;;;;;;;7.05;5.45;;;;;;;-144.57;100.00;62443.72;5065436;28;20045;-65
2023/04/26 03:01:39;;;;;;;6.28;5.05;;;;;;;-144.57;100.00;62443.72;5065115;28;20041;-62
2023/04/26 03:04:05;;;;;;;7.40;5.43;;;;;;;-144.57;100.00;62443.72;5066333;28;20123;-63
2023/04/26 03:06:33;;;;;;;5.63;4.57;;;;;;;-144.57;100.00;62443.72;5031647;28;20429;-64
2023/04/26 03:08:58;;;;;;;6.65;4.97;;;;;;;-144.57;100.00;62443.72;5037069;28;20045;-63
2023/04/26 03:11:24;;;;;;;6.75;4.97;;;;;;;-144.57;100.00;62443.72;5052684;28;20402;-64
2023/04/26 03:13:51;;;;;;;7.50;5.35;;;;;;;-144.57;100.00;62443.72;5065950;28;20044;-64
2023/04/26 03:16:20;;;;;;;7.95;5.15;;;;;;;-144.57;100.00;62443.72;5066027;28;20048;-64
2023/04/26 03:18:46;;;;;;;8.03;4.90;;;;;;;-144.57;100.00;62443.72;5041460;28;20303;-63
2023/04/26 03:21:12;;;;;;;6.80;5.10;;;;;;;-144.57;100.00;62443.72;5062642;28;20117;-63
2023/04/26 03:23:38;;;;;;;8.98;5.00;;;;;;;-144.57;100.00;62443.72;5065078;28;20036;-64
2023/04/26 03:26:03;;;;;;;5.93;4.68;;;;;;;-144.57;100.00;62443.72;5066354;28;20518;-63
2023/04/26 03:28:29;;;;;;;7.55;4.65;;;;;;;-144.57;100.00;62443.72;5051277;28;20059;-62
2023/04/26 03:30:56;;;;;;;7.20;5.10;;;;;;;-144.57;100.00;62443.72;5069759;28;20039;-63
2023/04/26 03:33:22;;;;;;;6.28;4.90;;;;;;;-144.57;100.00;62443.72;5053469;28;20094;-64
2023/04/26 03:35:48;;;;;;;6.57;5.10;;;;;;;-144.57;100.00;62443.72;5070065;28;20036;-64
2023/04/26 03:38:14;;;;;;;8.45;4.43;;;;;;;-144.57;100.00;62443.72;5054656;28;20619;-64
2023/04/26 03:40:40;;;;;;;6.65;4.70;;;;;;;-144.57;100.00;62443.72;5068686;28;20089;-64
2023/04/26 03:43:06;;;;;;;5.25;3.83;;;;;;;-144.57;100.00;62443.72;5050667;28;20040;-64
2023/04/26 03:45:32;;;;;;;5.40;4.07;;;;;;;-144.57;100.00;62443.72;5055265;28;20083;-63
2023/04/26 03:47:58;;;;;;;6.40;4.20;;;;;;;-144.57;100.00;62443.72;5053764;28;20066;-65
2023/04/26 03:50:23;;;;;;;7.22;4.75;;;;;;;-144.57;100.00;62443.72;5069030;28;20038;-64
2023/04/26 03:52:50;;;;;;;5.90;3.72;;;;;;;-144.57;100.00;62443.72;5037241;28;20040;-64
2023/04/26 03:55:16;;;;;;;5.22;4.35;;;;;;;-144.57;100.00;62443.72;5054518;28;20274;-64
2023/04/26 03:57:42;;;;;;;5.70;4.10;;;;;;;-144.57;100.00;62443.72;5046707;28;20057;-63
2023/04/26 04:00:11;;;;;;;5.05;3.47;;;;;;;-144.57;100.00;62443.72;5055505;28;20430;-63
2023/04/26 04:02:41;;;;;;;4.80;3.83;;;;;;;-144.57;100.00;62443.72;5055612;28;20045;-64
2023/04/26 04:05:10;;;;;;;5.03;3.63;;;;;;;-144.57;100.00;62443.72;5068242;28;20045;-63
2023/04/26 04:07:36;;;;;;;6.07;4.38;;;;;;;-144.57;100.00;62443.72;5059331;28;20183;-64
2023/04/26 04:10:02;;;;;;;4.72;3.60;;;;;;;-144.57;100.00;62443.72;5055332;28;20216;-62
2023/04/26 04:12:29;;;;;;;5.07;3.60;;;;;;;-144.57;100.00;62443.72;5054612;28;20414;-64
2023/04/26 04:14:55;;;;;;;4.10;3.30;;;;;;;-144.57;100.00;62443.72;5055161;28;20033;-63
2023/04/26 04:17:22;;;;;;;4.47;3.65;;;;;;;-144.57;100.00;62443.72;5054261;28;20049;-62
2023/04/26 04:19:49;;;;;;;10.20;3.70;;;;;;;-144.57;100.00;62443.72;5038335;28;20045;-64
2023/04/26 04:22:15;;;;;;;4.55;3.47;;;;;;;-144.57;100.00;62443.72;5055395;28;20041;-64
2023/04/26 04:24:43;;;;;;;5.18;3.72;;;;;;;-144.57;100.00;62443.72;5053964;28;20511;-63
2023/04/26 04:27:09;;;;;;;4.20;3.47;;;;;;;-144.57;100.00;62443.72;5068480;28;20056;-64
2023/04/26 04:29:37;;;;;;;4.85;3.30;;;;;;;-144.57;100.00;62443.72;5052526;28;20044;-63
2023/04/26 04:32:03;;;;;;;5.80;3.25;;;;;;;-144.57;100.00;62443.72;5049400;28;20072;-63
2023/04/26 04:34:34;;;;;;;5.85;3.17;;;;;;;-144.57;100.00;62443.72;5063460;28;20040;-63
2023/04/26 04:37:01;;;;;;;4.80;3.17;;;;;;;-144.57;100.00;62443.72;5051235;28;20040;-64
2023/04/26 04:39:27;;;;;;;4.30;2.92;;;;;;;-144.57;100.00;62443.72;5060329;28;20568;-63
2023/04/26 04:41:54;;;;;;;5.88;2.80;;;;;;;-144.57;100.00;62443.72;5054931;28;20131;-63
2023/04/26 04:44:23;;;;;;;3.53;2.47;;;;;;;-144.57;100.00;62443.72;5046362;28;20071;-65
2023/04/26 04:46:51;;;;;;;4.63;3.10;;;;;;;-144.57;100.00;62443.72;5022426;28;20040;-64
2023/04/26 04:49:17;;;;;;;6.20;2.55;;;;;;;-144.57;100.00;62443.72;5039383;28;20033;-65
2023/04/26 04:51:44;;;;;;;3.65;2.40;;;;;;;-144.57;100.00;62443.72;5063531;28;20048;-64
2023/04/26 04:54:15;;;;;;;2.70;2.30;;;;;;;-144.57;100.00;62443.72;5071796;28;20044;-64
2023/04/26 04:56:41;;;;;;;5.03;2.53;;;;;;;-144.57;100.00;62443.72;5056042;28;20139;-65
2023/04/26 04:59:08;;;;;;;4.35;2.45;;;;;;;-144.57;100.00;62443.72;5054642;28;20063;-64
2023/04/26 05:01:35;;;;;;;2.75;2.25;;;;;;;-144.57;100.00;62443.72;5071547;28;20041;-64
2023/04/26 05:04:05;;;;;;;4.03;2.55;;;;;;;-144.57;100.00;62443.72;5071436;28;20104;-64
2023/04/26 05:06:32;;;;;;;3.28;2.60;;;;;;;-144.57;100.00;62443.72;5070249;28;20127;-63
2023/04/26 05:08:59;;;;;;;2.40;2.20;;;;;;;-144.57;100.00;62443.72;5051346;28;20132;-62
2023/04/26 05:11:25;;;;;;;2.58;2.22;;;;;;;-144.57;100.00;62443.72;5046312;28;20039;-64
2023/04/26 05:13:51;;;;;;;3.90;2.08;;;;;;;-144.57;100.00;62443.72;5035407;28;20136;-65
2023/04/26 05:16:16;;;;;;;3.92;2.40;;;;;;;-144.57;100.00;62443.72;5067411;28;20039;-61
2023/04/26 05:18:43;;;;;;;3.85;2.40;;;;;;;-144.57;100.00;62443.72;5056517;28;20139;-65
2023/04/26 05:21:09;;;;;;;2.95;2.05;;;;;;;-144.57;100.00;62443.72;5042011;28;20052;-64
2023/04/26 05:23:35;;;;;;;2.42;2.10;;;;;;;-144.57;100.00;62443.72;5026923;28;20090;-64
2023/04/26 05:26:05;;;;;;;2.88;1.67;;;;;;;-144.57;100.00;62443.72;5054212;28;20040;-63
2023/04/26 05:29:03;;;;;;;2.40;1.80;;;;;;;-144.57;100.00;62443.72;5048161;28;20542;-63
2023/04/26 05:32:04;;;;;;;2.10;1.80;;;;;;;-144.57;100.00;62443.72;5044132;28;20037;-65
2023/04/26 05:34:38;;;;;;;1.50;1.40;;;;;;;-144.57;100.00;62443.72;5053617;28;20560;-63
2023/04/26 05:37:04;;;;;;;2.30;1.90;;;;;;;-144.57;100.00;62443.72;5062761;28;20037;-62
2023/04/26 05:39:30;;;;;;;6.35;3.88;;;;;;;-144.57;100.00;62443.72;5066635;28;20047;-64
2023/04/26 05:41:56;;;;;;;3.42;2.40;;;;;;;-144.57;100.00;62443.72;5048227;28;20040;-63
2023/04/26 05:44:22;;;;;;;2.38;1.70;;;;;;;-144.57;100.00;62443.72;5056061;28;20037;-61
2023/04/26 05:46:48;;;;;;;2.95;2.03;;;;;;;-144.57;100.00;62443.72;5056008;28;20043;-62
2023/04/26 05:49:14;;;;;;;2.17;1.80;;;;;;;-144.57;100.00;62443.72;5048183;28;20102;-63
2023/04/26 05:51:40;;;;;;;2.10;1.85;;;;;;;-144.57;100.00;62443.72;5052931;28;20043;-62
2023/04/26 05:54:06;;;;;;;2.08;1.88;;;;;;;-144.57;100.00;62443.72;5055073;28;20127;-60
2023/04/26 05:56:32;;;;;;;1.75;1.52;;;;;;;-144.57;100.00;62443.72;5031117;28;20052;-62
2023/04/26 05:58:58;;;;;;;3.03;1.70;;;;;;;-144.57;100.00;62443.72;5048674;28;20445;-62
2023/04/26 06:01:24;;;;;;;2.08;1.88;;;;;;;-144.57;100.00;62443.72;5042513;28;20082;-61
2023/04/26 06:03:50;;;;;;;2.42;1.98;;;;;;;-144.57;100.00;62443.72;5058538;28;20060;-62
2023/04/26 06:06:19;;;;;;;2.38;1.70;;;;;;;-144.57;100.00;62443.72;5058555;28;20537;-63
2023/04/26 06:08:45;;;;;;;2.60;2.40;;;;;;;-144.57;100.00;62443.72;5047952;28;20040;-62
2023/04/26 06:11:11;;;;;;;2.30;2.08;;;;;;;-144.57;100.00;62443.72;5064137;28;20064;-62
2023/04/26 06:13:37;;;;;;;2.42;2.20;;;;;;;-144.57;100.00;62443.72;5071091;28;20501;-62
2023/04/26 06:16:05;;;;;;;2.53;2.10;;;;;;;-144.57;100.00;62443.72;5064925;28;20505;-63
2023/04/26 06:18:31;;;;;;;3.45;2.53;;;;;;;-144.57;100.00;62443.72;5038714;28;20056;-59
2023/04/26 06:20:57;;;;;;;3.80;2.70;;;;;;;-144.57;100.00;62443.72;5056185;28;20037;-62
2023/04/26 06:23:23;;;;;;;2.70;1.98;;;;;;;-144.57;100.00;62443.72;5065115;28;20067;-62
2023/04/26 06:25:49;;;;;;;3.42;2.50;;;;;;;-144.57;100.00;62443.72;5062943;28;20076;-63
2023/04/26 06:28:15;;;;;;;2.55;2.35;;;;;;;-144.57;100.00;62443.72;5062232;28;20041;-60
2023/04/26 06:30:41;;;;;;;3.22;2.70;;;;;;;-144.57;100.00;62443.72;5047047;28;20033;-62
2023/04/26 06:33:07;;;;;;;3.45;2.67;;;;;;;-144.57;100.00;62443.72;5053020;28;20410;-62
2023/04/26 06:35:41;;;;;;;3.60;2.50;;;;;;;-144.57;100.00;62443.72;5034440;28;20041;-62
2023/04/26 06:38:08;;;;;;;3.00;2.70;;;;;;;-144.57;100.00;62443.72;5032946;28;20131;-62
2023/04/26 06:40:38;;;;;;;2.58;2.38;;;;;;;-144.57;100.00;62443.72;5051559;28;20044;-62
2023/04/26 06:43:04;;;;;;;2.60;2.40;;;;;;;-144.57;100.00;62443.72;5051512;28;20068;-61
2023/04/26 06:45:48;;;;;;;3.75;2.72;;;;;;;-144.57;100.00;62443.72;5054063;28;20403;-62
2023/04/26 06:48:18;;;;;;;4.57;2.58;;;;;;;-144.57;100.00;62443.72;5053995;28;20049;-62
2023/04/26 06:50:44;;;;;;;3.28;2.30;;;;;;;-144.57;100.00;62443.72;5034653;28;20028;-64
2023/04/26 06:53:10;;;;;;;3.63;2.67;;;;;;;-144.57;100.00;62443.72;5069988;28;20113;-64
2023/04/26 06:55:36;;;;;;;3.17;2.80;;;;;;;-144.57;100.00;62443.72;5069756;28;20044;-63
2023/04/26 06:58:02;;;;;;;3.78;3.13;;;;;;;-144.57;100.00;62443.72;5069473;28;20065;-62
2023/04/26 07:00:28;;;;;;;2.97;2.67;;;;;;;-144.57;100.00;62443.72;5057469;28;20128;-62
2023/04/26 07:02:54;;;;;;;3.92;2.60;;;;;;;-144.57;100.00;62443.72;5072277;28;20051;-61
2023/04/26 07:05:20;;;;;;;3.63;3.17;;;;;;;-144.57;100.00;62443.72;5067555;28;20045;-62
2023/04/26 07:07:46;;;;;;;3.95;3.50;;;;;;;-144.57;100.00;62443.72;5052360;28;20044;-63
2023/04/26 07:10:12;;;;;;;4.20;3.03;;;;;;;-144.57;100.00;62443.72;5052835;28;20103;-61
2023/04/26 07:12:38;;;;;;;4.43;3.35;;;;;;;-144.57;100.00;62443.72;5054385;28;20140;-63
2023/04/26 07:15:05;;;;;;;3.40;3.10;;;;;;;-144.57;100.00;62443.72;5018903;28;20037;-62
2023/04/26 07:17:32;;;;;;;3.47;2.97;;;;;;;-144.57;100.00;62443.72;5040972;28;20053;-64
2023/04/26 07:19:57;;;;;;;3.55;3.05;;;;;;;-144.57;100.00;62443.72;5072177;28;20036;-60
2023/04/26 07:22:23;;;;;;;3.88;3.47;;;;;;;-144.57;100.00;62443.72;5073589;28;20063;-62
2023/04/26 07:24:49;;;;;;;7.15;3.80;;;;;;;-144.57;100.00;62443.72;5072872;28;20417;-63
2023/04/26 07:27:15;;;;;;;6.35;3.58;;;;;;;-144.57;100.00;62443.72;5073607;28;20508;-63
2023/04/26 07:29:41;;;;;;;4.15;3.75;;;;;;;-144.57;100.00;62443.72;5072483;28;20040;-62
2023/04/26 07:32:07;;;;;;;4.30;3.67;;;;;;;-144.57;100.00;62443.72;5054147;28;20063;-62
2023/04/26 07:34:33;;;;;;;3.72;3.17;;;;;;;-144.57;100.00;62443.72;5069550;28;20094;-64
2023/04/26 07:36:59;;;;;;;5.03;3.47;;;;;;;-144.57;100.00;62443.72;5067852;28;21374;-62
2023/04/26 07:39:25;;;;;;;4.20;3.45;;;;;;;-144.57;100.00;62443.72;5063970;28;20037;-62
2023/04/26 07:41:51;;;;;;;4.65;3.90;;;;;;;-144.57;100.00;62443.72;5055220;28;20048;-62
2023/04/26 07:44:16;;;;;;;5.45;4.03;;;;;;;-144.57;100.00;62443.72;5056091;28;20514;-64
2023/04/26 07:46:42;;;;;;;3.90;3.40;;;;;;;-144.57;100.00;62443.72;5068899;28;20514;-62
2023/04/26 07:49:08;;;;;;;4.70;4.18;;;;;;;-144.57;100.00;62443.72;5069629;28;20076;-62
2023/04/26 07:51:35;;;;;;;5.75;3.63;;;;;;;-144.57;100.00;62443.72;5069797;28;20036;-63
2023/04/26 07:54:01;;;;;;;6.90;4.10;;;;;;;-144.57;100.00;62443.72;5065648;28;20043;-62
2023/04/26 07:56:27;;;;;;;3.72;3.42;;;;;;;-144.57;100.00;62443.72;5062701;28;20456;-63
2023/04/26 07:58:53;;;;;;;5.25;3.97;;;;;;;-144.57;100.00;62443.72;5063770;28;20041;-63
2023/04/26 08:01:18;;;;;;;3.83;3.42;;;;;;;-144.57;100.00;62443.72;5060440;28;20379;-63
2023/04/26 08:03:44;;;;;;;4.15;3.75;;;;;;;-144.57;100.00;62443.72;5069910;28;20497;-63
2023/04/26 08:06:10;;;;;;;3.35;2.80;;;;;;;-144.57;100.00;62443.72;5051768;28;20047;-61
2023/04/26 08:08:43;;;;;;;5.25;3.30;;;;;;;-144.57;100.00;62443.72;5049919;28;20048;-62
2023/04/26 08:11:10;;;;;;;4.85;4.05;;;;;;;-144.57;100.00;62443.72;5053440;28;20079;-62
2023/04/26 08:13:36;;;;;;;3.80;3.38;;;;;;;-144.57;100.00;62443.72;5054413;28;20586;-62
2023/04/26 08:16:01;;;;;;;4.03;3.60;;;;;;;-144.57;100.00;62443.72;5054054;28;20127;-63
2023/04/26 08:18:27;;;;;;;6.13;4.13;;;;;;;-144.57;100.00;62443.72;5065069;28;20444;-62
2023/04/26 08:20:54;;;;;;;4.05;3.65;;;;;;;-144.57;100.00;62443.72;5065735;28;20127;-62
2023/04/26 08:23:21;;;;;;;4.25;3.85;;;;;;;-144.57;100.00;62443.72;5058285;28;20072;-61
2023/04/26 08:25:48;;;;;;;4.15;3.70;;;;;;;-144.57;100.00;62443.72;5054113;28;20124;-61
2023/04/26 08:28:15;;;;;;;3.53;3.22;;;;;;;-144.57;100.00;62443.72;5028548;28;20072;-62
2023/04/26 08:30:41;;;;;;;3.60;3.30;;;;;;;-144.57;100.00;62443.72;5064090;28;20509;-62
2023/04/26 08:33:08;;;;;;;3.45;3.15;;;;;;;-144.57;100.00;62443.72;5067118;28;20036;-64
2023/04/26 08:35:34;;;;;;;4.82;3.65;;;;;;;-144.57;100.00;62443.72;5064772;28;20482;-63
2023/04/26 08:38:00;;;;;;;4.18;3.83;;;;;;;-144.57;100.00;62443.72;5052768;28;20064;-62
2023/04/26 08:40:26;;;;;;;5.25;4.70;;;;;;;-144.57;100.00;62443.72;5067636;28;20046;-64
2023/04/26 08:42:53;;;;;;;3.70;3.40;;;;;;;-144.57;100.00;62443.72;5055905;28;20446;-63
2023/04/26 08:45:21;;;;;;;4.22;3.50;;;;;;;-144.57;100.00;62443.72;5053858;28;20049;-63
2023/04/26 08:47:49;;;;;;;5.07;4.07;;;;;;;-144.57;100.00;62443.72;5066185;28;20045;-64
2023/04/26 08:50:17;;;;;;;4.13;3.72;;;;;;;-144.57;100.00;62443.72;5032645;28;20047;-64
2023/04/26 08:52:44;;;;;;;7.18;5.10;;;;;;;-144.57;100.00;62443.72;5063907;28;20048;-63
2023/04/26 08:55:11;;;;;;;5.25;4.75;;;;;;;-144.57;100.00;62443.72;5067766;28;20509;-63
2023/04/26 08:57:39;;;;;;;5.45;4.50;;;;;;;-144.57;100.00;62443.72;5066614;28;20060;-63
2023/04/26 09:00:12;;;;;;;6.53;4.57;;;;;;;-144.57;100.00;62443.72;5067001;28;20047;-63
2023/04/26 09:02:41;;;;;;;5.78;4.28;;;;;;;-144.57;100.00;62443.72;5062978;28;20071;-65
2023/04/26 09:05:08;;;;;;;4.93;4.43;;;;;;;-144.57;100.00;62443.72;5061010;28;20127;-62
2023/04/26 09:07:36;;;;;;;4.38;3.97;;;;;;;-144.57;100.00;62443.72;5068425;28;20121;-61
2023/04/26 09:10:03;;;;;;;6.45;4.60;;;;;;;-144.57;100.00;62443.72;5068127;28;20100;-62
2023/04/26 09:12:29;;;;;;;6.57;4.88;;;;;;;-144.57;100.00;62443.72;5057277;28;20047;-62
2023/04/26 09:14:55;;;;;;;7.15;5.57;;;;;;;-144.57;100.00;62443.72;5053188;28;20120;-63
2023/04/26 09:17:29;;;;;;;7.72;5.82;;;;;;;-144.57;100.00;62443.72;5053723;28;20045;-61
2023/04/26 09:19:56;;;;;;;5.50;4.97;;;;;;;-144.57;100.00;62443.72;5036024;28;20061;-62
2023/04/26 09:22:35;;;;;;;5.93;5.07;;;;;;;-144.57;100.00;62443.72;5066955;28;20075;-62
2023/04/26 09:25:05;;;;;;;8.85;6.35;;;;;;;-144.57;100.00;62443.72;5052437;28;20480;-61
2023/04/26 09:27:40;;;;;;;5.85;5.03;;;;;;;-144.57;100.00;62443.72;5049767;28;20056;-63
2023/04/26 09:30:06;;;;;;;6.78;4.88;;;;;;;-144.57;100.00;62443.72;5043762;28;20087;-63
2023/04/26 09:32:58;;;;;;;5.75;4.43;;;;;;;-144.57;100.00;62443.72;5056260;28;20513;-63
2023/04/26 09:35:28;;;;;;;10.35;6.00;;;;;;;-144.57;100.00;62443.72;5059555;28;20467;-62
2023/04/26 09:38:06;;;;;;;6.40;5.75;;;;;;;-144.57;100.00;62443.72;5064349;28;20439;-64
2023/04/26 09:40:37;;;;;;;9.48;6.00;;;;;;;-144.57;100.00;62443.72;5061285;28;20087;-64
2023/04/26 09:43:07;;;;;;;7.60;5.82;;;;;;;-144.57;100.00;62443.72;5048963;28;20036;-64
2023/04/26 09:45:45;;;;;;;6.10;5.50;;;;;;;-144.57;100.00;62443.72;5050966;28;20037;-63
2023/04/26 09:48:25;;;;;;;5.50;5.00;;;;;;;-144.57;100.00;62443.72;5062945;28;20062;-64
2023/04/26 09:50:59;;;;;;;4.60;4.20;;;;;;;-144.57;100.00;62443.72;5065020;28;20437;-64
2023/04/26 09:53:27;;;;;;;5.00;4.38;;;;;;;-144.57;100.00;62443.72;5064613;28;20041;-63
2023/04/26 09:55:54;;;;;;;5.70;4.20;;;;;;;-144.57;100.00;62443.72;5066825;28;20343;-64
2023/04/26 09:58:22;;;;;;;5.82;4.80;;;;;;;-144.57;100.00;62443.72;5065289;28;20287;-64
2023/04/26 10:00:50;;;;;;;4.50;4.10;;;;;;;-144.57;100.00;62443.72;5050910;28;20032;-63
2023/04/26 10:03:18;;;;;;;7.20;5.00;;;;;;;-144.57;100.00;62443.72;5052879;28;20055;-62
2023/04/26 10:05:43;;;;;;;4.97;4.47;;;;;;;-144.57;100.00;62443.72;5052296;28;20040;-64
2023/04/26 10:08:10;;;;;;;5.60;5.10;;;;;;;-144.57;100.00;62443.72;5051452;28;20057;-64
2023/04/26 10:10:36;;;;;;;6.53;4.95;;;;;;;-144.57;100.00;62443.72;5053233;28;20041;-63
2023/04/26 10:13:02;;;;;;;5.78;4.30;;;;;;;-144.57;100.00;62443.72;5069813;28;20086;-63
2023/04/26 10:15:28;;;;;;;5.07;4.57;;;;;;;-144.57;100.00;62443.72;5067252;28;20103;-64
2023/04/26 10:17:54;;;;;;;6.97;4.88;;;;;;;-144.57;100.00;62443.72;5067311;28;20052;-63
2023/04/26 10:20:21;;;;;;;5.97;4.38;;;;;;;-144.57;100.00;62443.72;5048448;28;20044;-63
2023/04/26 10:22:52;;;;;;;3.50;2.88;;;;;;;-144.57;100.00;62443.72;5051007;28;20043;-66
2023/04/26 10:25:17;;;;;;;;;;;;;;;-144.57;100.00;62443.72;5064547;28;20048;-64
2023/04/26 10:27:45;;;;;;;;;;;;;;;-144.57;100.00;62443.72;5067496;28;19924;-64
2023/04/26 10:30:11;;;;;;;;;;;;;;;-144.57;100.00;62443.72;5068628;28;19924;-64
2023/04/26 10:33:00;;;;;;;;;;;;;;;-144.57;100.00;62443.72;5064981;28;19924;-64
2023/04/26 10:35:26;;;;;;;;;;;;;;;-144.57;100.00;62443.72;5053887;28;19979;-65
2023/04/26 10:38:00;;;;;;;;;;;;;;;-144.57;100.00;62443.72;5030579;28;19924;-65
2023/04/26 10:40:30;;;;;;;;;;;;;;;-144.57;100.00;62443.72;5067775;28;20019;-64
2023/04/26 10:43:14;;;;;;;;;;;;;;;-144.57;100.00;62443.72;5057054;28;19925;-64
2023/04/26 10:45:42;;;;;;;;;;;;;;;-144.57;100.00;62443.72;5071595;28;20287;-64
2023/04/26 10:48:10;;;;;;;;;;;;;;;-144.57;100.00;62443.72;5068447;28;19928;-64
2023/04/26 10:50:47;;;;;;;;;;;;;;;-144.57;100.00;62443.72;5066157;28;19959;-63
2023/04/26 10:53:13;;;;;;;;;;;;;;;-144.57;100.00;62443.72;5039936;28;19924;-61
2023/04/26 10:55:40;;;;;;;;;;;;;;;-144.57;100.00;62443.72;5047669;28;20267;-64
2023/04/26 10:58:25;;;;;;;;;;;;;;;-144.57;100.00;62443.72;5062450;28;19940;-65
2023/04/26 11:01:06;;;;;;;;;;;;;;;-144.57;100.00;62443.72;5068888;28;19920;-64
2023/04/26 11:03:31;;;;;;;;;;;;;;;-144.57;100.00;62443.72;5067197;28;19924;-62
2023/04/26 11:05:57;;;;;;;;;;;;;;;-144.57;100.00;62443.72;5053552;28;19920;-64
2023/04/26 11:08:24;;;;;;;;;;;;;;;-144.57;100.00;62443.72;5052513;28;19924;-64
2023/04/26 11:10:53;;;;;;;;;;;;;;;-144.57;100.00;62443.72;5052193;28;19925;-65
2023/04/26 11:13:19;;;;;;;;;;;;;;;-144.57;100.00;62443.72;5057508;28;20321;-63
2023/04/26 11:15:45;;;;;;;;;;;;;;;-144.57;100.00;62443.72;5054571;28;19920;-65